createdAt,value
2018-07-13T00:02:14.040Z,28.80
2018-07-13T00:04:42.209Z,30.97
2018-07-13T00:07:10.354Z,31.00
2018-07-13T00:09:38.499Z,30.40
2018-07-13T00:12:06.679Z,28.17
2018-07-13T00:14:34.859Z,30.33
2018-07-13T00:17:03.320Z,32.03
2018-07-13T00:19:31.463Z,28.20
2018-07-13T00:21:59.589Z,27.62
2018-07-13T00:24:27.773Z,27.60
2018-07-13T00:26:55.896Z,33.97
2018-07-13T00:29:24.052Z,28.90
2018-07-13T00:31:52.193Z,27.00
2018-07-13T00:34:20.339Z,29.10
2018-07-13T00:36:48.482Z,25.80
2018-07-13T00:39:16.596Z,32.63
2018-07-13T00:41:44.719Z,27.20
2018-07-13T00:44:12.852Z,29.43
2018-07-13T00:46:40.967Z,28.95
2018-07-13T00:49:09.095Z,32.53
2018-07-13T00:51:37.251Z,31.27
2018-07-13T00:54:05.368Z,29.50
2018-07-13T00:56:33.529Z,29.15
2018-07-13T00:59:01.652Z,30.80
2018-07-13T01:01:29.807Z,29.83
2018-07-13T01:03:57.923Z,34.60
2018-07-13T01:06:26.044Z,28.57
2018-07-13T01:08:54.229Z,28.47
2018-07-13T01:11:22.364Z,28.97
2018-07-13T01:13:50.936Z,30.50
2018-07-13T01:16:19.035Z,30.07
2018-07-13T01:18:47.176Z,31.97
2018-07-13T01:21:15.328Z,27.23
2018-07-13T01:23:43.504Z,31.27
2018-07-13T01:26:11.665Z,27.20
2018-07-13T01:28:39.839Z,27.48
2018-07-13T01:31:07.977Z,26.70
2018-07-13T01:33:36.158Z,27.00
2018-07-13T01:36:04.319Z,31.00
2018-07-13T01:38:32.448Z,28.25
2018-07-13T01:41:00.614Z,28.47
2018-07-13T01:43:28.782Z,27.40
2018-07-13T01:45:56.932Z,32.14
2018-07-13T01:48:25.103Z,26.77
2018-07-13T01:50:53.265Z,29.70
2018-07-13T01:53:21.412Z,31.65
2018-07-13T01:55:49.572Z,28.32
2018-07-13T01:58:17.756Z,28.30
2018-07-13T02:00:45.967Z,23.73
2018-07-13T02:03:14.076Z,25.97
2018-07-13T02:05:42.174Z,24.37
2018-07-13T02:08:10.296Z,22.80
2018-07-13T02:10:38.447Z,23.67
2018-07-13T02:13:06.571Z,25.90
2018-07-13T02:15:34.711Z,22.50
2018-07-13T02:18:02.833Z,21.67
2018-07-13T02:20:31.014Z,27.45
2018-07-13T02:22:59.148Z,25.03
2018-07-13T02:25:27.317Z,25.90
2018-07-13T02:27:55.432Z,22.97
2018-07-13T02:30:23.588Z,26.68
2018-07-13T02:32:51.711Z,24.37
2018-07-13T02:35:19.856Z,20.03
2018-07-13T02:37:47.989Z,20.40
2018-07-13T02:40:16.145Z,21.13
2018-07-13T02:42:44.273Z,26.30
2018-07-13T02:45:12.421Z,24.50
2018-07-13T02:47:40.566Z,20.83
2018-07-13T02:50:08.678Z,21.20
2018-07-13T02:52:36.839Z,22.67
2018-07-13T02:55:05.085Z,21.10
2018-07-13T02:57:33.268Z,19.43
2018-07-13T03:00:01.447Z,18.98
2018-07-13T03:02:29.645Z,20.00
2018-07-13T03:04:57.784Z,18.13
2018-07-13T03:07:25.936Z,19.13
2018-07-13T03:09:54.092Z,20.20
2018-07-13T03:12:22.216Z,19.70
2018-07-13T03:14:50.304Z,18.07
2018-07-13T03:17:18.406Z,17.60
2018-07-13T03:19:46.754Z,19.05
2018-07-13T03:22:14.952Z,16.63
2018-07-13T03:24:42.980Z,18.87
2018-07-13T03:27:11.084Z,17.43
2018-07-13T03:29:40.230Z,21.80
2018-07-13T03:32:08.443Z,20.62
2018-07-13T03:34:36.588Z,19.77
2018-07-13T03:37:04.808Z,20.20
2018-07-13T03:39:32.965Z,15.50
2018-07-13T03:42:01.095Z,23.33
2018-07-13T03:44:29.238Z,16.37
2018-07-13T03:46:58.240Z,17.32
2018-07-13T03:49:26.355Z,17.40
2018-07-13T03:51:54.457Z,16.73
2018-07-13T03:54:22.632Z,15.98
2018-07-13T03:56:50.776Z,20.60
2018-07-13T03:59:18.949Z,19.37
2018-07-13T04:01:47.088Z,23.90
2018-07-13T04:04:15.348Z,19.33
2018-07-13T04:06:43.446Z,14.78
2018-07-13T04:09:12.060Z,16.07
2018-07-13T04:11:40.208Z,14.87
2018-07-13T04:14:08.584Z,15.07
2018-07-13T04:16:36.697Z,17.77
2018-07-13T04:19:05.158Z,17.48
2018-07-13T04:21:33.280Z,19.73
2018-07-13T04:24:01.420Z,18.10
2018-07-13T04:26:29.627Z,16.37
2018-07-13T04:28:57.880Z,22.90
2018-07-13T04:31:26.076Z,22.53
2018-07-13T04:33:54.184Z,18.57
2018-07-13T04:36:22.311Z,21.00
2018-07-13T04:38:50.396Z,19.67
2018-07-13T04:41:18.512Z,20.23
2018-07-13T04:43:46.617Z,18.90
2018-07-13T04:46:14.722Z,27.93
2018-07-13T04:48:42.812Z,22.30
2018-07-13T04:51:10.968Z,18.67
2018-07-13T04:53:39.121Z,19.90
2018-07-13T04:56:07.300Z,21.53
2018-07-13T04:58:35.387Z,18.63
2018-07-13T05:01:03.542Z,23.40
2018-07-13T05:03:31.794Z,18.40
2018-07-13T05:05:59.912Z,18.17
2018-07-13T05:08:28.044Z,19.50
2018-07-13T05:10:56.204Z,22.00
2018-07-13T05:13:24.274Z,19.50
2018-07-13T05:15:52.398Z,19.30
2018-07-13T05:18:20.536Z,23.87
2018-07-13T05:20:48.664Z,18.80
2018-07-13T05:23:16.769Z,18.20
2018-07-13T05:25:44.873Z,20.93
2018-07-13T05:28:13.064Z,17.20
2018-07-13T05:30:41.209Z,16.07
2018-07-13T05:33:09.310Z,19.73
2018-07-13T05:35:39.212Z,15.43
2018-07-13T05:38:07.328Z,15.15
2018-07-13T05:40:35.459Z,18.03
2018-07-13T05:43:03.614Z,18.15
2018-07-13T05:45:31.904Z,17.82
2018-07-13T05:48:00.058Z,14.98
2018-07-13T05:50:28.175Z,18.13
2018-07-13T05:52:56.361Z,23.03
2018-07-13T05:55:24.504Z,16.20
2018-07-13T05:57:52.627Z,16.30
2018-07-13T06:00:20.824Z,17.40
2018-07-13T06:02:48.968Z,14.67
2018-07-13T06:05:17.162Z,14.47
2018-07-13T06:07:45.403Z,19.40
2018-07-13T06:10:13.536Z,13.87
2018-07-13T06:12:41.769Z,15.53
2018-07-13T06:15:09.930Z,15.53
2018-07-13T06:17:38.020Z,14.70
2018-07-13T06:20:08.295Z,15.98
2018-07-13T06:22:36.453Z,15.48
2018-07-13T06:25:04.635Z,14.33
2018-07-13T06:27:32.737Z,23.37
2018-07-13T06:30:00.913Z,13.13
2018-07-13T06:32:29.019Z,13.53
2018-07-13T06:34:57.144Z,18.87
2018-07-13T06:37:25.265Z,21.43
2018-07-13T06:39:53.387Z,16.25
2018-07-13T06:42:21.476Z,15.23
2018-07-13T06:44:49.645Z,15.07
2018-07-13T06:47:17.741Z,16.33
2018-07-13T06:49:45.919Z,15.70
2018-07-13T06:52:14.537Z,19.10
2018-07-13T06:54:42.678Z,12.63
2018-07-13T06:57:17.076Z,13.60
2018-07-13T06:59:45.240Z,13.23
2018-07-13T07:02:23.378Z,13.93
2018-07-13T07:04:56.657Z,19.23
2018-07-13T07:07:27.031Z,15.30
2018-07-13T07:09:57.004Z,19.03
2018-07-13T07:13:31.550Z,14.20
2018-07-13T07:16:00.037Z,14.70
2018-07-13T07:18:28.158Z,13.22
2018-07-13T07:20:57.316Z,12.90
2018-07-13T07:23:26.670Z,12.93
2018-07-13T07:25:55.629Z,15.70
2018-07-13T07:28:23.808Z,12.65
2018-07-13T07:30:52.268Z,13.10
2018-07-13T07:33:20.432Z,13.30
2018-07-13T07:35:48.696Z,12.90
2018-07-13T07:38:16.934Z,10.27
2018-07-13T07:40:45.239Z,13.30
2018-07-13T07:43:13.438Z,11.57
2018-07-13T07:45:41.544Z,11.40
2018-07-13T07:48:09.692Z,8.67
2018-07-13T07:50:37.816Z,8.40
2018-07-13T07:53:05.937Z,10.98
2018-07-13T07:55:34.056Z,9.30
2018-07-13T07:58:02.144Z,9.25
2018-07-13T08:00:30.271Z,12.80
2018-07-13T08:02:58.389Z,10.73
2018-07-13T08:05:26.526Z,9.25
2018-07-13T08:07:54.691Z,10.10
2018-07-13T08:10:22.804Z,7.37
2018-07-13T08:12:51.133Z,8.47
2018-07-13T08:15:19.264Z,7.30
2018-07-13T08:17:47.386Z,8.90
2018-07-13T08:20:18.264Z,8.20
2018-07-13T08:22:50.281Z,7.17
2018-07-13T08:25:18.406Z,7.70
2018-07-13T08:27:48.296Z,10.17
2018-07-13T08:30:49.809Z,8.20
2018-07-13T08:33:17.934Z,9.97
2018-07-13T08:35:46.053Z,8.10
2018-07-13T08:38:14.152Z,7.83
2018-07-13T08:40:42.297Z,9.67
2018-07-13T08:43:10.404Z,10.50
2018-07-13T08:45:38.588Z,8.28
2018-07-13T08:48:06.643Z,7.90
2018-07-13T08:50:34.754Z,8.70
2018-07-13T08:53:02.831Z,7.90
2018-07-13T08:55:30.964Z,7.10
2018-07-13T08:57:59.346Z,8.53
2018-07-13T09:00:27.459Z,7.93
2018-07-13T09:02:55.580Z,8.27
2018-07-13T09:05:23.755Z,8.50
2018-07-13T09:07:51.867Z,8.97
2018-07-13T09:10:20.005Z,7.08
2018-07-13T09:12:48.091Z,9.10
2018-07-13T09:15:16.181Z,7.33
2018-07-13T09:17:44.309Z,7.83
2018-07-13T09:20:13.410Z,7.90
2018-07-13T09:22:41.583Z,14.33
2018-07-13T09:25:10.275Z,7.50
2018-07-13T09:27:38.869Z,9.33
2018-07-13T09:30:07.562Z,10.90
2018-07-13T09:32:35.655Z,9.53
2018-07-13T09:35:03.773Z,8.27
2018-07-13T09:37:32.268Z,6.93
2018-07-13T09:40:00.416Z,8.20
2018-07-13T09:42:28.564Z,10.80
2018-07-13T09:44:56.698Z,10.03
2018-07-13T09:47:24.826Z,8.30
2018-07-13T09:49:53.200Z,8.85
2018-07-13T09:52:21.355Z,9.97
2018-07-13T09:54:49.530Z,11.20
2018-07-13T09:57:17.635Z,8.80
2018-07-13T09:59:45.756Z,8.07
2018-07-13T10:02:13.872Z,7.10
2018-07-13T10:04:42.009Z,9.93
2018-07-13T10:07:10.132Z,8.23
2018-07-13T10:09:38.268Z,8.70
2018-07-13T10:12:06.398Z,9.17
2018-07-13T10:14:34.630Z,10.93
2018-07-13T10:17:02.745Z,8.73
2018-07-13T10:19:30.823Z,8.80
2018-07-13T10:21:59.058Z,10.33
2018-07-13T10:24:27.977Z,8.30
2018-07-13T10:26:56.637Z,8.00
2018-07-13T10:29:28.609Z,11.70
2018-07-13T10:31:56.735Z,14.40
2018-07-13T10:34:24.947Z,10.20
2018-07-13T10:36:56.905Z,9.23
2018-07-13T10:39:25.100Z,12.27
2018-07-13T10:41:53.604Z,17.30
2018-07-13T10:44:21.827Z,10.40
2018-07-13T10:46:49.922Z,9.00
2018-07-13T10:49:18.137Z,8.20
2018-07-13T10:51:46.296Z,11.00
2018-07-13T10:54:14.456Z,11.07
2018-07-13T10:56:42.599Z,8.50
2018-07-13T10:59:10.703Z,10.60
2018-07-13T11:01:38.858Z,10.03
2018-07-13T11:04:07.000Z,11.60
2018-07-13T11:06:35.100Z,16.60
2018-07-13T11:09:03.346Z,9.73
2018-07-13T11:11:31.470Z,11.40
2018-07-13T11:13:59.632Z,12.40
2018-07-13T11:16:27.711Z,9.83
2018-07-13T11:18:56.367Z,8.67
2018-07-13T11:21:24.580Z,10.40
2018-07-13T11:23:52.742Z,10.53
2018-07-13T11:26:22.957Z,9.50
2018-07-13T11:28:51.165Z,11.83
2018-07-13T11:31:19.308Z,8.33
2018-07-13T11:33:47.453Z,10.43
2018-07-13T11:36:15.597Z,11.20
2018-07-13T11:38:43.772Z,9.40
2018-07-13T11:41:11.873Z,10.10
2018-07-13T11:43:39.993Z,12.27
2018-07-13T11:46:08.156Z,9.83
2018-07-13T11:48:36.332Z,10.13
2018-07-13T11:51:04.616Z,8.63
2018-07-13T11:53:32.692Z,9.50
2018-07-13T11:56:00.849Z,13.83
2018-07-13T11:58:28.980Z,8.40
2018-07-13T12:00:57.145Z,10.00
2018-07-13T12:03:25.283Z,15.33
2018-07-13T12:05:53.411Z,12.60
2018-07-13T12:08:21.482Z,9.27
2018-07-13T12:10:49.637Z,10.43
2018-07-13T12:13:17.769Z,11.70
2018-07-13T12:15:46.348Z,12.07
2018-07-13T12:18:14.499Z,12.87
2018-07-13T12:20:42.686Z,9.80
2018-07-13T12:23:11.032Z,12.87
2018-07-13T12:25:39.134Z,9.13
2018-07-13T12:28:07.255Z,9.07
2018-07-13T12:30:35.436Z,9.37
2018-07-13T12:33:03.596Z,10.10
2018-07-13T12:35:31.692Z,9.90
2018-07-13T12:37:59.848Z,14.90
2018-07-13T12:40:28.018Z,10.90
2018-07-13T12:42:56.187Z,11.90
2018-07-13T12:45:24.376Z,8.60
2018-07-13T12:47:52.542Z,8.93
2018-07-13T12:50:20.680Z,13.67
2018-07-13T12:52:48.940Z,10.10
2018-07-13T12:55:17.055Z,8.87
2018-07-13T12:57:45.168Z,9.73
2018-07-13T13:00:13.306Z,8.37
2018-07-13T13:02:41.479Z,9.57
2018-07-13T13:05:09.625Z,9.87
2018-07-13T13:07:37.738Z,10.40
2018-07-13T13:10:05.930Z,10.75
2018-07-13T13:12:34.038Z,9.70
2018-07-13T13:15:02.192Z,11.10
2018-07-13T13:17:30.337Z,7.70
2018-07-13T13:19:58.431Z,10.98
2018-07-13T13:22:26.557Z,9.30
2018-07-13T13:24:54.679Z,12.63
2018-07-13T13:27:22.833Z,7.53
2018-07-13T13:29:51.034Z,8.35
2018-07-13T13:32:19.150Z,9.63
2018-07-13T13:34:47.309Z,8.17
2018-07-13T13:37:15.449Z,8.60
2018-07-13T13:39:44.526Z,7.82
2018-07-13T13:42:12.628Z,8.30
2018-07-13T13:44:40.965Z,7.63
2018-07-13T13:47:09.074Z,7.80
2018-07-13T13:49:37.172Z,9.83
2018-07-13T13:52:05.289Z,9.43
2018-07-13T13:54:33.427Z,9.67
2018-07-13T13:57:01.540Z,9.67
2018-07-13T13:59:29.720Z,12.13
2018-07-13T14:01:57.856Z,7.20
2018-07-13T14:04:26.032Z,8.20
2018-07-13T14:06:54.187Z,7.33
2018-07-13T14:09:22.313Z,7.47
2018-07-13T14:11:50.448Z,8.33
2018-07-13T14:14:18.643Z,11.93
2018-07-13T14:16:46.808Z,8.63
2018-07-13T14:19:14.912Z,6.60
2018-07-13T14:21:43.039Z,8.05
2018-07-13T14:24:11.181Z,6.30
2018-07-13T14:26:39.326Z,6.70
2018-07-13T14:29:07.460Z,8.60
2018-07-13T14:31:35.605Z,19.23
2018-07-13T14:34:03.706Z,9.10
2018-07-13T14:36:31.893Z,10.13
2018-07-13T14:39:00.027Z,7.45
2018-07-13T14:41:28.192Z,6.90
2018-07-13T14:43:56.328Z,8.30
2018-07-13T14:46:24.466Z,7.17
2018-07-13T14:48:52.615Z,9.23
2018-07-13T14:51:20.740Z,10.27
2018-07-13T14:53:48.909Z,7.20
2018-07-13T14:56:17.049Z,8.10
2018-07-13T14:58:54.133Z,6.93
2018-07-13T15:01:30.004Z,6.30
2018-07-13T15:03:59.417Z,11.40
2018-07-13T15:06:28.533Z,7.80
2018-07-13T15:08:56.568Z,8.70
2018-07-13T15:11:24.736Z,12.50
2018-07-13T15:13:52.918Z,7.10
2018-07-13T15:16:21.070Z,8.33
2018-07-13T15:18:49.460Z,10.10
2018-07-13T15:21:17.575Z,8.93
2018-07-13T15:23:45.754Z,7.30
2018-07-13T15:26:13.868Z,8.43
2018-07-13T15:28:41.979Z,8.40
2018-07-13T15:31:10.136Z,6.97
2018-07-13T15:33:38.302Z,7.47
2018-07-13T15:36:06.470Z,7.33
2018-07-13T15:38:34.611Z,6.70
2018-07-13T15:41:02.788Z,6.83
2018-07-13T15:43:30.996Z,8.83
2018-07-13T15:45:59.158Z,6.57
2018-07-13T15:48:27.276Z,8.03
2018-07-13T15:50:55.397Z,6.53
2018-07-13T15:53:23.527Z,10.23
2018-07-13T15:55:58.722Z,11.10
2018-07-13T15:58:27.539Z,8.30
2018-07-13T16:00:55.711Z,8.13
2018-07-13T16:03:23.980Z,6.67
2018-07-13T16:05:52.234Z,7.60
2018-07-13T16:08:20.486Z,7.80
2018-07-13T16:10:48.726Z,6.40
2018-07-13T16:13:16.811Z,7.33
2018-07-13T16:15:44.908Z,6.67
2018-07-13T16:18:13.028Z,7.80
2018-07-13T16:20:41.260Z,7.50
2018-07-13T16:23:09.338Z,11.37
2018-07-13T16:25:37.464Z,7.40
2018-07-13T16:28:05.560Z,7.63
2018-07-13T16:30:33.686Z,7.37
2018-07-13T16:33:01.769Z,7.90
2018-07-13T16:35:29.869Z,6.97
2018-07-13T16:37:58.083Z,7.53
2018-07-13T16:40:26.312Z,8.00
2018-07-13T16:42:54.424Z,8.03
2018-07-13T16:45:22.643Z,7.30
2018-07-13T16:47:50.795Z,7.27
2018-07-13T16:50:19.119Z,7.20
2018-07-13T16:52:47.803Z,7.33
2018-07-13T16:55:15.964Z,9.60
2018-07-13T16:57:44.380Z,7.25
2018-07-13T17:00:12.716Z,7.90
2018-07-13T17:02:40.828Z,7.00
2018-07-13T17:05:09.095Z,6.85
2018-07-13T17:07:37.270Z,7.97
2018-07-13T17:10:05.407Z,7.05
2018-07-13T17:12:33.510Z,8.58
2018-07-13T17:15:01.716Z,9.43
2018-07-13T17:17:29.864Z,8.20
2018-07-13T17:19:58.047Z,8.80
2018-07-13T17:22:26.197Z,6.90
2018-07-13T17:24:54.334Z,7.97
2018-07-13T17:27:22.610Z,7.87
2018-07-13T17:29:50.723Z,8.50
2018-07-13T17:32:18.825Z,8.93
2018-07-13T17:34:47.079Z,7.73
2018-07-13T17:37:15.308Z,8.93
2018-07-13T17:39:43.423Z,9.13
2018-07-13T17:42:11.552Z,9.27
2018-07-13T17:44:39.713Z,9.28
2018-07-13T17:47:07.903Z,9.68
2018-07-13T17:49:36.491Z,8.97
2018-07-13T17:52:04.698Z,8.47
2018-07-13T17:54:32.888Z,8.67
2018-07-13T17:57:01.028Z,9.80
2018-07-13T17:59:29.178Z,11.27
2018-07-13T18:01:57.337Z,8.40
2018-07-13T18:04:25.438Z,9.23
2018-07-13T18:06:53.622Z,8.17
2018-07-13T18:09:21.755Z,10.57
2018-07-13T18:11:49.997Z,9.00
2018-07-13T18:14:18.158Z,10.13
2018-07-13T18:16:46.252Z,9.20
2018-07-13T18:19:14.471Z,8.93
2018-07-13T18:21:42.619Z,9.80
2018-07-13T18:24:10.747Z,9.53
2018-07-13T18:26:38.835Z,10.90
2018-07-13T18:29:07.042Z,10.37
2018-07-13T18:31:35.177Z,8.70
2018-07-13T18:34:03.280Z,9.10
2018-07-13T18:36:31.443Z,13.67
2018-07-13T18:38:59.553Z,9.73
2018-07-13T18:41:27.643Z,8.57
2018-07-13T18:43:55.816Z,8.67
2018-07-13T18:46:23.972Z,11.07
2018-07-13T18:48:52.078Z,9.60
2018-07-13T18:51:20.336Z,9.97
2018-07-13T18:53:48.452Z,13.65
2018-07-13T18:56:16.547Z,10.32
2018-07-13T18:58:44.638Z,8.25
2018-07-13T19:01:12.773Z,9.28
2018-07-13T19:03:40.856Z,9.78
2018-07-13T19:06:09.027Z,8.83
2018-07-13T19:08:37.141Z,10.30
2018-07-13T19:11:05.285Z,10.63
2018-07-13T19:13:33.464Z,9.00
2018-07-13T19:16:01.484Z,8.10
2018-07-13T19:18:29.585Z,10.80
2018-07-13T19:20:57.693Z,10.80
2018-07-13T19:23:25.821Z,9.43
2018-07-13T19:25:53.946Z,10.10
2018-07-13T19:28:22.095Z,9.90
2018-07-13T19:30:50.295Z,9.65
2018-07-13T19:33:18.318Z,10.17
2018-07-13T19:35:46.408Z,9.40
2018-07-13T19:38:14.503Z,9.20
2018-07-13T19:40:42.660Z,8.93
2018-07-13T19:43:10.794Z,8.50
2018-07-13T19:45:38.924Z,8.80
2018-07-13T19:48:07.103Z,8.03
2018-07-13T19:50:35.348Z,8.77
2018-07-13T19:53:03.529Z,8.67
2018-07-13T19:55:31.726Z,7.83
2018-07-13T19:57:59.864Z,7.37
2018-07-13T20:00:27.963Z,8.27
2018-07-13T20:02:56.118Z,9.87
2018-07-13T20:05:24.171Z,9.00
2018-07-13T20:07:52.294Z,7.75
2018-07-13T20:10:20.456Z,8.17
2018-07-13T20:12:48.554Z,7.70
2018-07-13T20:15:16.706Z,7.83
2018-07-13T20:17:44.811Z,7.97
2018-07-13T20:20:12.928Z,9.00
2018-07-13T20:22:41.048Z,8.53
2018-07-13T20:25:09.199Z,10.48
2018-07-13T20:27:37.663Z,7.77
2018-07-13T20:30:06.027Z,8.70
2018-07-13T20:32:34.164Z,10.30
2018-07-13T20:35:02.271Z,9.07
2018-07-13T20:37:30.396Z,9.73
2018-07-13T20:39:58.766Z,10.05
2018-07-13T20:42:26.958Z,9.10
2018-07-13T20:44:55.336Z,8.05
2018-07-13T20:47:23.457Z,8.95
2018-07-13T20:49:52.029Z,8.90
2018-07-13T20:52:20.149Z,9.43
2018-07-13T20:54:48.236Z,9.83
2018-07-13T20:57:16.427Z,9.03
2018-07-13T20:59:44.572Z,12.15
2018-07-13T21:02:12.748Z,8.43
2018-07-13T21:04:40.919Z,10.03
2018-07-13T21:07:09.040Z,9.53
2018-07-13T21:09:37.221Z,9.73
2018-07-13T21:12:05.483Z,8.40
2018-07-13T21:14:33.657Z,9.50
2018-07-13T21:17:01.809Z,10.43
2018-07-13T21:19:29.913Z,9.13
2018-07-13T21:21:58.091Z,9.20
2018-07-13T21:24:26.227Z,9.33
2018-07-13T21:26:54.433Z,11.17
2018-07-13T21:29:22.513Z,8.20
2018-07-13T21:31:50.732Z,8.57
2018-07-13T21:34:18.851Z,10.63
2018-07-13T21:36:47.013Z,8.97
2018-07-13T21:39:15.235Z,9.10
2018-07-13T21:41:43.348Z,8.97
2018-07-13T21:44:11.507Z,8.13
2018-07-13T21:46:39.698Z,10.90
2018-07-13T21:49:07.831Z,6.83
2018-07-13T21:51:35.942Z,8.25
2018-07-13T21:54:04.052Z,6.00
2018-07-13T21:56:32.212Z,9.00
2018-07-13T21:59:00.316Z,9.87
2018-07-13T22:01:28.451Z,8.63
2018-07-13T22:03:56.578Z,7.97
2018-07-13T22:06:24.767Z,7.73
2018-07-13T22:08:52.913Z,8.10
2018-07-13T22:11:21.009Z,7.57
2018-07-13T22:13:49.188Z,5.70
2018-07-13T22:16:17.345Z,7.00
2018-07-13T22:18:45.589Z,6.53
2018-07-13T22:21:13.710Z,7.07
2018-07-13T22:23:41.874Z,6.43
2018-07-13T22:26:10.035Z,8.60
2018-07-13T22:28:38.161Z,7.87
2018-07-13T22:31:06.337Z,7.25
2018-07-13T22:33:34.404Z,6.70
2018-07-13T22:36:02.533Z,7.33
2018-07-13T22:38:30.652Z,6.93
2018-07-13T22:40:59.008Z,7.70
2018-07-13T22:43:27.175Z,7.20
2018-07-13T22:45:55.308Z,7.57
2018-07-13T22:48:23.425Z,7.40
2018-07-13T22:50:51.580Z,6.67
2018-07-13T22:53:19.648Z,7.03
2018-07-13T22:55:47.757Z,6.55
2018-07-13T22:58:15.898Z,7.17
2018-07-13T23:00:44.020Z,7.87
2018-07-13T23:03:12.148Z,7.05
2018-07-13T23:05:40.231Z,7.90
2018-07-13T23:08:08.370Z,6.90
2018-07-13T23:10:36.516Z,6.40
2018-07-13T23:13:04.636Z,7.10
2018-07-13T23:15:32.812Z,6.60
2018-07-13T23:18:00.929Z,7.37
2018-07-13T23:20:29.105Z,8.20
2018-07-13T23:22:57.239Z,6.03
2018-07-13T23:25:25.358Z,7.87
2018-07-13T23:27:53.441Z,6.70
2018-07-13T23:30:21.562Z,6.50
2018-07-13T23:32:49.712Z,6.83
2018-07-13T23:35:17.836Z,8.67
2018-07-13T23:37:45.930Z,9.43
2018-07-13T23:40:14.056Z,5.80
2018-07-13T23:42:42.148Z,6.50
2018-07-13T23:45:10.320Z,6.47
2018-07-13T23:47:38.432Z,7.23
2018-07-13T23:50:06.850Z,9.00
2018-07-13T23:52:35.072Z,6.33
2018-07-13T23:55:03.226Z,7.20
2018-07-13T23:57:31.332Z,6.83
2018-07-13T23:59:59.485Z,6.87
